Portland, OR (97267)

3:18 AM PDT on September 02, 2015 (GMT -0700)
Oakgrove PO 1E (Milwaukie) | | Change Station
CLOSE
Current Station
Personal Weather Station
Location: Portland, OR
Elevation: 335 ft
Nearby Weather Stations

Elev 335 ft 45.41 °N, 122.61 °W | Updated 16 seconds ago

Mostly Cloudy
Mostly Cloudy
58.1 °F
Feels Like 58.1 °F
N
0.0
Wind Variable Wind from East
Gusts 0.0 mph

Today
High -- | Low -- °F
--% Chance of Precip.
Yesterday
High -- | Low -- °F
Precip. -- in
6:33 AM 7:46 PM
Waning Gibbous, 81% visible
Pressure 29.88 in
Visibility 10.0 miles
Clouds Overcast 8000 ft
Dew Point 56 °F
Humidity 92%
Rainfall 0.00 in
Snow Depth Not available.
UV 0 out of 12
Pollen 2.90 out of 12
Air Quality Not available.
Flu Activity Not available.
METAR KUAO 020953Z AUTO 21004KT 10SM OVC080 15/12 A2989 RMK AO2 SLP118 T01500117
Pressure 29.88 in
Visibility 10.0 miles
Clouds Overcast 8000 ft
Dew Point 56 °F
Humidity 92%
Rainfall 0.00 in
Snow Depth Not available.
UV 0 out of 12
Pollen 2.90 out of 12
Air Quality Not available.
Flu Activity Not available.
METAR KUAO 020953Z AUTO 21004KT 10SM OVC080 15/12 A2989 RMK AO2 SLP118 T01500117

10-Day Weather Forecast

×

Almanac

Astronomy

Sep. 02, 2015 Rise Set
Actual Time
Civil Twilight
Nautical Twilight
Astronomical Twilight
Moon
Length of Visible Light
Length of Day
Tomorrow will be .
, % of the Moon is Illuminated

Today's Extremes

State Highs State Lows

Community

WunderPhotos

Upload Photos

1,851,734 photos uploaded!

WunderBlogs® & News

Nearby

Air Quality

  Air Quality AQ Index Pollutant
Not available.

Snow Depth

Station Depth Elevation

Earthquake Activity

City Distance Mag. Time & Date
Minimum magnitude displayed is 2.5.

Coastal Water Temperatures

Place Temperature

Stations

Nearby Weather Stations

Station Location Temp. Windchill Dew Point Humidity Wind Precip. Elev Updated Type